Carrington, North Dakota
Current Conditions -  °F | °C
As of 1:35 AM on Wednesday 22 Oct 2014 (Local Time) from K46D Reporting Station
Haze Haze  
Wind Chill: 15°   Ceiling: Unl
Heat Index: 15°   Visibility: 4mi
Dew Point:   Wind: 26mph
Humidity: 63%   Direction: 160°SSE
Pressure: 29.72"   Gusts: 32mph
Location:  47.45°N, 99.13°W
Report Text: K46D 220635Z AUTO 16023G28KT 4SM HZ CLR 15/08 A2972 RMK AO2
Loading
Personal Weather Stations






























Interactive Weather Map
Tropical Storm Tracking
New forecast layout! Learn more

10-Day Weather Forecast

Advertisements
Track Severe Weather on mobile